Time;durP1;ratioP1;P1;durP2;ratioP2;P2;SDS_P1;SDS_P2;PMS_P1;PMS_P2;Temp;Humidity;BMP_temperature;BMP_pressure;BME280_temperature;BME280_humidity;BME280_pressure;Samples;Min_cycle;Max_cycle;Signal;HPM_P1;HPM_P2
2022/10/24 00:00:20;;;;;;;6.65;1.60;;;14.00;99.90;;;;;;6127149;19;19945;-79
2022/10/24 00:02:24;;;;;;;3.60;2.65;;;14.10;99.90;;;;;;6128336;19;19925;-80
2022/10/24 00:04:28;;;;;;;4.82;1.95;;;14.30;99.90;;;;;;6126289;19;19915;-79
2022/10/24 00:06:32;;;;;;;5.32;1.50;;;14.00;99.90;;;;;;6126895;19;20332;-80
2022/10/24 00:08:37;;;;;;;3.00;1.20;;;13.90;99.90;;;;;;6126288;19;19911;-79
2022/10/24 00:10:43;;;;;;;5.82;1.60;;;14.10;99.90;;;;;;6126807;19;20364;-79
2022/10/24 00:12:49;;;;;;;4.18;1.45;;;14.10;99.90;;;;;;6126604;19;20340;-79
2022/10/24 00:14:53;;;;;;;3.78;1.40;;;14.30;99.90;;;;;;6128410;19;19923;-79
2022/10/24 00:16:57;;;;;;;5.10;1.38;;;13.80;99.90;;;;;;6128106;19;19937;-79
2022/10/24 00:19:01;;;;;;;2.50;1.40;;;13.70;99.90;;;;;;6126819;19;19915;-79
2022/10/24 00:21:05;;;;;;;3.75;1.60;;;13.90;99.90;;;;;;6127526;19;19913;-79
2022/10/24 00:23:10;;;;;;;4.05;1.20;;;13.80;99.90;;;;;;6129041;19;19926;-78
2022/10/24 00:25:14;;;;;;;4.25;1.55;;;14.00;99.90;;;;;;6125766;19;19918;-80
2022/10/24 00:27:18;;;;;;;2.72;1.98;;;13.80;99.90;;;;;;6127250;19;19915;-80
2022/10/24 00:29:25;;;;;;;3.95;1.15;;;14.00;99.90;;;;;;6126443;19;20258;-80
2022/10/24 00:31:29;;;;;;;4.07;1.27;;;14.00;99.90;;;;;;6126663;19;20268;-80
2022/10/24 00:33:33;;;;;;;3.10;1.38;;;13.60;99.90;;;;;;6127900;19;19970;-80
2022/10/24 00:35:37;;;;;;;5.63;1.40;;;14.30;99.90;;;;;;6128905;19;19919;-80
2022/10/24 00:37:41;;;;;;;6.07;2.08;;;13.80;99.90;;;;;;6132207;19;19918;-79
2022/10/24 00:39:45;;;;;;;4.13;1.08;;;14.20;99.90;;;;;;6130663;19;19914;-79
2022/10/24 00:41:48;;;;;;;4.57;1.27;;;13.80;99.90;;;;;;6128777;19;19915;-79
2022/10/24 00:43:52;;;;;;;6.28;1.60;;;13.90;99.90;;;;;;6126918;19;19938;-79
2022/10/24 00:46:01;;;;;;;4.18;1.80;;;13.80;99.90;;;;;;6125205;19;19915;-80
2022/10/24 00:48:11;;;;;;;4.32;1.50;;;13.50;99.90;;;;;;6126095;19;19959;-79
2022/10/24 00:50:17;;;;;;;7.60;1.77;;;13.90;99.90;;;;;;6127628;19;19923;-79
2022/10/24 00:52:26;;;;;;;3.95;1.30;;;13.90;99.90;;;;;;6128064;19;20003;-79
2022/10/24 00:54:30;;;;;;;3.70;1.20;;;13.90;99.90;;;;;;6127951;19;19926;-80
2022/10/24 00:56:38;;;;;;;4.20;1.40;;;13.80;99.90;;;;;;6127720;19;20355;-79
2022/10/24 00:58:44;;;;;;;4.28;1.13;;;13.90;99.90;;;;;;6129837;19;19937;-80
2022/10/24 01:00:50;;;;;;;6.20;2.90;;;13.90;99.90;;;;;;6131083;19;19914;-79
2022/10/24 01:02:56;;;;;;;2.97;1.50;;;14.00;99.90;;;;;;6132175;19;19922;-80
2022/10/24 01:05:01;;;;;;;3.25;1.20;;;13.90;99.90;;;;;;6133665;19;19937;-80
2022/10/24 01:07:18;;;;;;;4.90;1.33;;;13.70;99.90;;;;;;6133165;19;19923;-80
2022/10/24 01:09:37;;;;;;;2.78;1.48;;;14.00;99.90;;;;;;6131851;19;19978;-80
2022/10/24 01:11:55;;;;;;;4.45;1.20;;;13.50;99.90;;;;;;6130746;19;19925;-80
2022/10/24 01:14:14;;;;;;;1.77;1.00;;;13.70;99.90;;;;;;6132751;19;19918;-80
2022/10/24 01:16:24;;;;;;;2.72;1.20;;;13.80;99.90;;;;;;6133216;19;20256;-79
2022/10/24 01:18:36;;;;;;;5.88;1.35;;;13.90;99.90;;;;;;6130475;19;19915;-80
2022/10/24 01:21:07;;;;;;;4.75;1.35;;;13.90;99.90;;;;;;6134790;19;20332;-80
2022/10/24 01:23:32;;;;;;;2.78;1.10;;;13.70;99.90;;;;;;6131129;19;19933;-80
2022/10/24 01:25:47;;;;;;;5.63;1.20;;;13.80;99.90;;;;;;6130502;19;19922;-80
2022/10/24 01:27:59;;;;;;;4.00;1.40;;;13.20;99.90;;;;;;6135025;19;19918;-80
2022/10/24 01:30:13;;;;;;;4.45;1.10;;;14.60;99.90;;;;;;6130889;19;19911;-80
2022/10/24 01:32:22;;;;;;;2.10;0.90;;;13.60;99.90;;;;;;6132671;19;19923;-80
2022/10/24 01:34:32;;;;;;;3.50;1.20;;;14.60;99.90;;;;;;6132798;19;19989;-80
2022/10/24 01:36:43;;;;;;;4.25;1.20;;;14.10;99.90;;;;;;6131013;19;19933;-80
2022/10/24 01:38:52;;;;;;;2.53;0.93;;;14.10;99.90;;;;;;6132189;19;20268;-80
2022/10/24 01:41:00;;;;;;;3.13;1.00;;;13.50;99.90;;;;;;6130755;19;19911;-80
2022/10/24 01:43:11;;;;;;;2.95;0.98;;;13.70;99.90;;;;;;6132002;19;19922;-81
2022/10/24 01:45:25;;;;;;;3.25;1.00;;;14.00;99.90;;;;;;6131042;19;19926;-80
2022/10/24 01:47:35;;;;;;;2.13;0.85;;;13.60;99.90;;;;;;6133248;19;19941;-81
2022/10/24 01:49:41;;;;;;;1.40;0.80;;;13.40;99.90;;;;;;6130395;19;19942;-81
2022/10/24 01:51:47;;;;;;;2.08;0.90;;;13.80;99.90;;;;;;6133621;19;20352;-81
2022/10/24 01:53:52;;;;;;;2.60;0.80;;;13.60;99.90;;;;;;6133734;19;20356;-81
2022/10/24 01:55:56;;;;;;;4.10;1.25;;;13.70;99.90;;;;;;6131498;19;20294;-80
2022/10/24 01:58:00;;;;;;;2.35;0.80;;;13.80;99.90;;;;;;6134488;19;20272;-81
2022/10/24 02:00:07;;;;;;;4.07;1.13;;;13.80;99.90;;;;;;6132473;19;19937;-80
2022/10/24 02:02:19;;;;;;;2.20;0.93;;;13.60;99.90;;;;;;6132414;19;19910;-80
2022/10/24 02:04:25;;;;;;;3.15;1.08;;;13.90;99.90;;;;;;6133956;19;19953;-81
2022/10/24 02:06:34;;;;;;;1.55;0.95;;;14.20;99.90;;;;;;6132624;19;20288;-80
2022/10/24 02:08:43;;;;;;;3.22;1.17;;;13.70;99.90;;;;;;6133275;19;19933;-80
2022/10/24 02:10:50;;;;;;;3.38;0.95;;;13.70;99.90;;;;;;6130243;19;19915;-80
2022/10/24 02:12:58;;;;;;;2.33;0.82;;;13.70;99.90;;;;;;6130415;19;19914;-80
2022/10/24 02:15:06;;;;;;;2.65;1.05;;;14.10;99.90;;;;;;6129240;19;20268;-81
2022/10/24 02:17:13;;;;;;;6.82;1.20;;;13.50;99.90;;;;;;6131140;19;20280;-80
2022/10/24 02:19:17;;;;;;;4.68;1.30;;;13.80;99.90;;;;;;6127782;19;19914;-80
2022/10/24 02:21:30;;;;;;;5.75;1.42;;;13.90;99.90;;;;;;6129453;19;20292;-80
2022/10/24 02:23:39;;;;;;;4.40;1.30;;;13.70;99.90;;;;;;6127828;19;19930;-80
2022/10/24 02:25:45;;;;;;;;;;;14.00;99.90;;;;;;6134176;19;20333;-80
2022/10/24 02:27:53;;;;;;;3.13;1.23;;;14.50;99.90;;;;;;6129347;19;19918;-81
2022/10/24 02:30:02;;;;;;;5.03;1.58;;;13.70;99.90;;;;;;6129706;19;19918;-81
2022/10/24 02:32:09;;;;;;;4.38;1.88;;;14.00;99.90;;;;;;6129228;19;19934;-80
2022/10/24 02:34:19;;;;;;;4.20;1.38;;;14.00;99.90;;;;;;6128542;19;20407;-78
2022/10/24 02:36:27;;;;;;;6.80;2.38;;;13.60;99.90;;;;;;6129242;19;19938;-79
2022/10/24 02:38:34;;;;;;;2.20;1.10;;;14.00;99.90;;;;;;6129247;19;19918;-78
2022/10/24 02:40:39;;;;;;;4.75;1.50;;;14.30;99.90;;;;;;6132502;19;19914;-79
2022/10/24 02:42:45;;;;;;;5.65;1.65;;;14.20;99.90;;;;;;6129519;19;19945;-80
2022/10/24 02:44:50;;;;;;;4.45;1.52;;;14.00;99.90;;;;;;6128666;19;20251;-80
2022/10/24 02:46:58;;;;;;;6.85;1.92;;;14.10;99.90;;;;;;6127371;19;20248;-80
2022/10/24 02:49:04;;;;;;;3.38;1.55;;;14.20;99.90;;;;;;6128793;19;20320;-80
2022/10/24 02:51:11;;;;;;;3.75;1.58;;;14.10;99.90;;;;;;6128665;19;19910;-80
2022/10/24 02:53:17;;;;;;;6.25;1.70;;;14.20;99.90;;;;;;6128754;19;19910;-80
2022/10/24 02:55:21;;;;;;;7.72;1.50;;;14.30;99.90;;;;;;6128769;19;19918;-78
2022/10/24 02:57:25;;;;;;;4.28;1.48;;;13.90;99.90;;;;;;6128937;19;19978;-80
2022/10/24 02:59:29;;;;;;;3.13;1.48;;;14.40;99.90;;;;;;6128792;19;19919;-79
2022/10/24 03:01:33;;;;;;;3.08;1.52;;;13.90;99.90;;;;;;6129144;19;19945;-80
2022/10/24 03:03:37;;;;;;;4.40;1.52;;;13.90;99.90;;;;;;6129423;19;19936;-80
2022/10/24 03:05:41;;;;;;;4.18;1.60;;;14.30;99.90;;;;;;6128439;19;19915;-80
2022/10/24 03:07:47;;;;;;;5.13;1.50;;;14.00;99.90;;;;;;6128627;19;19922;-80
2022/10/24 03:09:51;;;;;;;4.10;1.35;;;14.20;99.90;;;;;;6128565;19;19929;-81
2022/10/24 03:11:55;;;;;;;5.85;1.38;;;14.20;99.90;;;;;;6128260;19;19937;-80
2022/10/24 03:13:59;;;;;;;3.55;1.38;;;14.30;99.90;;;;;;6127830;19;19922;-80
2022/10/24 03:16:03;;;;;;;4.32;1.58;;;14.10;99.90;;;;;;6127984;19;20375;-80
2022/10/24 03:18:07;;;;;;;5.00;1.85;;;14.10;99.90;;;;;;6127749;19;19934;-80
2022/10/24 03:20:12;;;;;;;6.18;2.08;;;14.60;99.90;;;;;;6128052;19;20556;-80
2022/10/24 03:22:15;;;;;;;5.70;1.20;;;14.20;99.90;;;;;;6125442;19;20443;-80
2022/10/24 03:24:23;;;;;;;2.80;1.55;;;13.80;99.90;;;;;;6131382;19;19922;-80
2022/10/24 03:26:27;;;;;;;7.03;1.30;;;14.30;99.90;;;;;;6127276;19;19927;-80
2022/10/24 03:28:30;;;;;;;5.78;1.50;;;14.50;99.90;;;;;;6127799;19;20011;-80
2022/10/24 03:30:34;;;;;;;6.95;1.40;;;14.00;99.90;;;;;;6127813;19;19915;-80
2022/10/24 03:32:38;;;;;;;5.05;1.27;;;14.20;99.90;;;;;;6127801;19;20274;-81
2022/10/24 03:34:42;;;;;;;3.25;1.27;;;;;;;;;;6126923;19;20296;-80
2022/10/24 03:36:46;;;;;;;6.88;1.70;;;14.00;99.90;;;;;;6127531;19;20280;-79
2022/10/24 03:38:50;;;;;;;3.80;1.63;;;13.80;99.90;;;;;;6127984;19;19942;-79
2022/10/24 03:40:56;;;;;;;8.35;1.63;;;14.20;99.90;;;;;;6127660;19;19918;-80
2022/10/24 03:43:00;;;;;;;5.43;1.23;;;14.00;99.90;;;;;;6127945;19;20275;-80
2022/10/24 03:45:05;;;;;;;7.00;1.52;;;14.10;99.90;;;;;;6126973;19;19918;-80
2022/10/24 03:47:08;;;;;;;7.32;1.80;;;14.20;99.90;;;;;;6126199;19;20306;-80
2022/10/24 03:49:12;;;;;;;5.03;1.48;;;13.90;99.90;;;;;;6127767;19;19907;-80
2022/10/24 03:51:16;;;;;;;6.18;1.60;;;14.10;99.90;;;;;;6129704;19;20336;-80
2022/10/24 03:53:20;;;;;;;4.18;1.63;;;14.20;99.90;;;;;;6127495;19;20336;-80
2022/10/24 03:55:25;;;;;;;3.75;1.42;;;13.90;99.90;;;;;;6127379;19;19922;-80
2022/10/24 03:57:31;;;;;;;2.83;1.38;;;14.60;99.90;;;;;;6128039;19;19918;-80
2022/10/24 03:59:35;;;;;;;4.55;1.95;;;14.20;99.90;;;;;;6129976;19;19926;-80
2022/10/24 04:01:39;;;;;;;4.13;2.05;;;14.00;99.90;;;;;;6128365;19;19926;-80
2022/10/24 04:03:43;;;;;;;4.20;1.50;;;14.20;99.90;;;;;;6127535;19;19922;-80
2022/10/24 04:05:47;;;;;;;4.28;1.20;;;13.70;99.90;;;;;;6129765;19;19946;-80
2022/10/24 04:07:50;;;;;;;5.35;1.20;;;14.10;99.90;;;;;;6127088;19;19911;-80
2022/10/24 04:09:56;;;;;;;4.55;1.52;;;14.30;99.90;;;;;;6126794;19;19915;-80
2022/10/24 04:11:59;;;;;;;8.15;1.50;;;14.10;99.90;;;;;;6126527;19;20280;-80
2022/10/24 04:14:06;;;;;;;6.15;2.30;;;14.10;99.90;;;;;;6126322;19;20241;-78
2022/10/24 04:16:11;;;;;;;5.07;1.50;;;14.60;99.90;;;;;;6126021;19;19918;-80
2022/10/24 04:18:15;;;;;;;5.80;1.70;;;14.00;99.90;;;;;;6129305;19;19922;-80
2022/10/24 04:20:21;;;;;;;2.60;1.35;;;14.30;99.90;;;;;;6126756;19;19938;-80
2022/10/24 04:22:25;;;;;;;3.65;1.20;;;14.50;99.90;;;;;;6129145;19;19914;-80
2022/10/24 04:24:30;;;;;;;7.63;1.75;;;14.40;99.90;;;;;;6126640;19;19942;-80
2022/10/24 04:26:33;;;;;;;3.50;1.25;;;14.20;99.90;;;;;;6126040;19;19926;-80
2022/10/24 04:28:37;;;;;;;4.05;1.58;;;14.80;99.90;;;;;;6126437;19;20387;-80
2022/10/24 04:30:45;;;;;;;8.57;1.60;;;14.50;99.90;;;;;;6126704;19;19922;-80
2022/10/24 04:32:49;;;;;;;3.97;1.40;;;14.70;99.90;;;;;;6126764;19;19941;-80
2022/10/24 04:34:53;;;;;;;5.15;1.40;;;14.40;99.90;;;;;;6130760;19;19969;-80
2022/10/24 04:36:56;;;;;;;2.80;1.35;;;14.40;99.90;;;;;;6131789;19;19931;-80
2022/10/24 04:39:00;;;;;;;4.53;2.03;;;14.60;99.90;;;;;;6131862;19;19907;-79
2022/10/24 04:41:04;;;;;;;2.70;1.25;;;14.40;99.90;;;;;;6133184;19;19917;-80
2022/10/24 04:43:08;;;;;;;4.68;1.45;;;14.50;99.90;;;;;;6131089;19;19919;-79
2022/10/24 04:45:13;;;;;;;4.63;1.27;;;14.30;99.90;;;;;;6131861;19;19918;-79
2022/10/24 04:47:20;;;;;;;3.85;1.52;;;14.20;99.90;;;;;;6133598;19;19915;-80
2022/10/24 04:49:24;;;;;;;2.20;1.10;;;14.50;99.90;;;;;;6131371;19;19923;-79
2022/10/24 04:51:28;;;;;;;4.55;1.30;;;14.40;99.90;;;;;;6131365;19;19921;-79
2022/10/24 04:53:32;;;;;;;5.90;1.60;;;14.30;99.90;;;;;;6132641;19;19918;-79
2022/10/24 04:55:37;;;;;;;5.88;1.58;;;14.10;99.90;;;;;;6131661;19;19923;-80
2022/10/24 04:57:40;;;;;;;6.78;1.70;;;14.20;99.90;;;;;;6131450;19;19943;-80
2022/10/24 04:59:44;;;;;;;6.28;1.42;;;14.50;99.90;;;;;;6132682;19;19926;-80
2022/10/24 05:01:48;;;;;;;3.20;1.00;;;14.50;99.90;;;;;;6132215;19;20430;-80
2022/10/24 05:03:55;;;;;;;4.28;1.17;;;14.10;99.90;;;;;;6132220;19;19933;-79
2022/10/24 05:05:59;;;;;;;2.95;1.23;;;14.50;99.90;;;;;;6134455;19;19919;-79
2022/10/24 05:08:02;;;;;;;4.85;1.60;;;14.50;99.90;;;;;;6130769;19;19919;-79
2022/10/24 05:10:07;;;;;;;5.72;1.10;;;14.40;99.90;;;;;;6131435;19;19946;-79
2022/10/24 05:12:11;;;;;;;3.22;1.42;;;14.20;99.90;;;;;;6130888;19;19957;-80
2022/10/24 05:14:15;;;;;;;4.13;1.33;;;14.40;99.90;;;;;;6130868;19;19910;-80
2022/10/24 05:16:19;;;;;;;9.45;2.45;;;14.40;99.90;;;;;;6131503;19;20347;-80
2022/10/24 05:18:23;;;;;;;3.15;1.42;;;14.20;99.90;;;;;;6132233;19;20012;-80
2022/10/24 05:20:30;;;;;;;6.53;1.63;;;14.30;99.90;;;;;;6135688;19;19938;-79
2022/10/24 05:22:34;;;;;;;4.50;1.33;;;14.50;99.90;;;;;;6133694;19;19942;-80
2022/10/24 05:24:39;;;;;;;4.78;1.35;;;14.50;99.90;;;;;;6133735;19;20249;-80
2022/10/24 05:26:43;;;;;;;4.47;1.60;;;;;;;;;;6134540;19;19918;-79
2022/10/24 05:28:47;;;;;;;4.35;1.00;;;14.30;99.90;;;;;;6133639;19;19941;-79
2022/10/24 05:30:51;;;;;;;3.83;1.02;;;14.20;99.90;;;;;;6133850;19;19915;-79
2022/10/24 05:32:55;;;;;;;5.45;1.08;;;14.10;99.90;;;;;;6131113;19;19922;-79
2022/10/24 05:34:59;;;;;;;4.18;1.23;;;14.20;99.90;;;;;;6129442;19;19974;-79
2022/10/24 05:37:05;;;;;;;6.00;1.08;;;14.00;99.90;;;;;;6130846;19;20251;-79
2022/10/24 05:39:09;;;;;;;3.97;0.95;;;14.40;99.90;;;;;;6131085;19;19919;-80
2022/10/24 05:41:13;;;;;;;2.60;0.88;;;14.50;99.90;;;;;;6130191;19;19911;-80
2022/10/24 05:43:17;;;;;;;5.13;0.90;;;14.30;99.90;;;;;;6132948;19;19922;-80
2022/10/24 05:45:21;;;;;;;4.90;1.50;;;14.20;99.90;;;;;;6128016;19;19915;-80
2022/10/24 05:47:25;;;;;;;2.67;0.88;;;14.20;99.90;;;;;;6130842;19;20276;-80
2022/10/24 05:49:29;;;;;;;6.97;1.00;;;14.00;99.90;;;;;;6130106;19;19952;-80
2022/10/24 05:51:33;;;;;;;8.32;1.27;;;14.30;99.90;;;;;;6130652;19;19914;-82
2022/10/24 05:53:40;;;;;;;1.33;0.90;;;14.70;99.90;;;;;;6132323;19;19923;-80
2022/10/24 05:55:44;;;;;;;5.43;0.95;;;14.10;99.90;;;;;;6130489;19;19945;-81
2022/10/24 05:57:48;;;;;;;3.85;0.90;;;14.40;99.90;;;;;;6130443;19;19937;-82
2022/10/24 05:59:52;;;;;;;5.93;1.30;;;14.30;99.90;;;;;;6131789;19;19935;-82
2022/10/24 06:01:55;;;;;;;6.70;1.08;;;13.80;99.90;;;;;;6131541;19;19926;-81
2022/10/24 06:03:59;;;;;;;3.38;0.90;;;13.90;99.90;;;;;;6130316;19;20368;-81
2022/10/24 06:06:06;;;;;;;2.28;0.80;;;14.40;99.90;;;;;;6130103;19;19914;-81
2022/10/24 06:08:11;;;;;;;3.30;1.08;;;13.90;99.90;;;;;;6129505;19;19974;-81
2022/10/24 06:10:17;;;;;;;3.53;1.00;;;14.60;99.90;;;;;;6130426;19;19911;-79
2022/10/24 06:12:21;;;;;;;5.00;0.88;;;14.80;99.90;;;;;;6131556;19;19918;-80
2022/10/24 06:14:25;;;;;;;4.50;1.02;;;13.90;99.90;;;;;;6131537;19;20275;-82
2022/10/24 06:16:32;;;;;;;3.83;1.00;;;14.20;99.90;;;;;;6131351;19;19915;-83
2022/10/24 06:18:36;;;;;;;5.60;1.00;;;14.00;99.90;;;;;;6130454;19;19919;-81
2022/10/24 06:20:40;;;;;;;5.72;1.23;;;14.30;99.90;;;;;;6132494;19;19940;-83
2022/10/24 06:22:45;;;;;;;3.35;0.90;;;14.10;99.90;;;;;;6129359;19;19918;-82
2022/10/24 06:24:50;;;;;;;4.22;1.05;;;14.10;99.90;;;;;;6129438;19;19991;-84
2022/10/24 06:26:56;;;;;;;5.47;1.60;;;14.10;99.90;;;;;;6131683;19;19922;-82
2022/10/24 06:29:00;;;;;;;4.57;1.00;;;14.70;99.90;;;;;;6131950;19;19915;-81
2022/10/24 06:31:04;;;;;;;2.88;0.70;;;;;;;;;;6128945;19;19942;-82
2022/10/24 06:33:08;;;;;;;3.45;1.00;;;14.60;99.90;;;;;;6132145;19;19942;-82
2022/10/24 06:35:14;;;;;;;6.53;2.75;;;14.50;99.90;;;;;;6126055;19;19938;-81
2022/10/24 06:37:18;;;;;;;1.70;0.70;;;14.50;99.90;;;;;;6130569;19;19941;-80
2022/10/24 06:39:23;;;;;;;5.45;1.13;;;14.10;99.90;;;;;;6131098;19;20271;-82
2022/10/24 06:41:26;;;;;;;3.53;0.93;;;14.50;99.90;;;;;;6130513;19;20371;-81
2022/10/24 06:43:33;;;;;;;1.52;0.80;;;14.50;99.90;;;;;;6131029;19;19922;-81
2022/10/24 06:45:39;;;;;;;5.95;1.23;;;14.60;99.90;;;;;;6131791;19;19919;-82
2022/10/24 06:47:43;;;;;;;3.63;0.88;;;14.00;99.90;;;;;;6129686;19;19926;-84
2022/10/24 06:49:46;;;;;;;2.95;1.10;;;14.60;99.90;;;;;;6131996;19;20356;-82
2022/10/24 06:51:50;;;;;;;5.05;1.08;;;14.40;99.90;;;;;;6129577;19;19957;-82
2022/10/24 06:53:54;;;;;;;3.78;1.00;;;14.80;99.90;;;;;;6129103;19;19910;-82
2022/10/24 06:56:01;;;;;;;3.17;0.70;;;14.00;99.90;;;;;;6128377;19;19911;-82
2022/10/24 06:58:06;;;;;;;4.72;1.13;;;14.40;99.90;;;;;;6128768;19;19911;-81
2022/10/24 07:00:14;;;;;;;5.40;1.00;;;14.40;99.90;;;;;;6129087;19;19918;-81
2022/10/24 07:02:18;;;;;;;2.80;1.10;;;14.10;99.90;;;;;;6132161;19;19918;-82
2022/10/24 07:04:22;;;;;;;4.90;1.40;;;14.50;99.90;;;;;;6128638;19;19923;-82
2022/10/24 07:06:28;;;;;;;3.75;1.13;;;13.80;99.90;;;;;;6129568;19;20336;-82
2022/10/24 07:08:32;;;;;;;5.53;1.85;;;13.80;99.90;;;;;;6127282;19;19914;-81
2022/10/24 07:10:36;;;;;;;5.03;1.05;;;;;;;;;;6128345;19;19941;-82
2022/10/24 07:12:41;;;;;;;2.42;1.55;;;14.10;99.90;;;;;;6128049;19;20280;-82
2022/10/24 07:14:46;;;;;;;3.33;0.90;;;14.10;99.90;;;;;;6129512;19;19924;-82
2022/10/24 07:16:52;;;;;;;4.72;1.15;;;14.30;99.90;;;;;;6128187;19;19974;-81
2022/10/24 07:18:56;;;;;;;3.47;0.80;;;14.40;99.90;;;;;;6129382;19;19993;-81
2022/10/24 07:21:03;;;;;;;5.38;1.02;;;14.50;99.90;;;;;;6128041;19;19914;-80
2022/10/24 07:23:07;;;;;;;2.75;1.02;;;14.80;99.90;;;;;;6127611;19;19911;-81
2022/10/24 07:25:12;;;;;;;1.92;0.90;;;14.70;99.90;;;;;;6127660;19;19907;-81
2022/10/24 07:27:18;;;;;;;5.53;1.40;;;14.40;99.90;;;;;;6128001;19;19928;-84
2022/10/24 07:29:22;;;;;;;6.25;0.90;;;14.60;99.90;;;;;;6128968;19;20348;-80
2022/10/24 07:31:29;;;;;;;1.83;1.00;;;14.30;99.90;;;;;;6127076;19;20439;-80
2022/10/24 07:33:36;;;;;;;1.80;0.73;;;14.70;99.90;;;;;;6129180;19;20734;-82
2022/10/24 07:35:43;;;;;;;3.63;1.48;;;14.30;99.90;;;;;;6126577;19;20324;-82
2022/10/24 07:37:47;;;;;;;2.83;0.90;;;14.50;99.90;;;;;;6127745;19;19910;-82
2022/10/24 07:39:51;;;;;;;2.47;0.80;;;15.00;99.90;;;;;;6127726;19;19974;-82
2022/10/24 07:41:55;;;;;;;5.10;1.10;;;;;;;;;;6128231;19;19949;-82
2022/10/24 07:44:01;;;;;;;4.75;0.80;;;14.70;99.90;;;;;;6129134;19;20280;-82
2022/10/24 07:46:07;;;;;;;7.15;1.33;;;15.20;99.90;;;;;;6127731;19;19938;-81
2022/10/24 07:48:12;;;;;;;2.65;0.70;;;15.20;99.90;;;;;;6128736;19;20284;-81
2022/10/24 07:50:18;;;;;;;4.35;1.27;;;15.20;99.90;;;;;;6127543;19;20283;-83
2022/10/24 07:52:22;;;;;;;1.90;0.73;;;14.70;99.90;;;;;;6126887;19;19922;-82
2022/10/24 07:54:27;;;;;;;4.10;0.82;;;14.70;99.90;;;;;;6127208;19;19914;-81
2022/10/24 07:56:31;;;;;;;5.18;0.80;;;15.10;99.90;;;;;;6126887;19;19974;-82
2022/10/24 07:58:35;;;;;;;3.53;1.05;;;14.50;99.90;;;;;;6127580;19;19938;-82
2022/10/24 08:00:39;;;;;;;3.38;0.70;;;14.90;99.90;;;;;;6128898;19;19919;-81
2022/10/24 08:02:44;;;;;;;2.97;0.70;;;15.30;99.90;;;;;;6127608;19;19938;-82
2022/10/24 08:04:47;;;;;;;3.42;0.85;;;14.50;99.90;;;;;;6125595;19;19919;-82
2022/10/24 08:06:54;;;;;;;3.28;0.88;;;14.60;99.90;;;;;;6127543;19;19919;-82
2022/10/24 08:08:58;;;;;;;5.03;0.98;;;15.60;99.90;;;;;;6124550;19;19951;-82
2022/10/24 08:11:02;;;;;;;6.90;0.77;;;15.20;99.90;;;;;;6126053;19;20263;-81
2022/10/24 08:13:06;;;;;;;3.20;1.08;;;14.90;99.90;;;;;;6127495;19;20339;-81
2022/10/24 08:15:12;;;;;;;3.78;0.80;;;15.00;99.90;;;;;;6126793;19;20399;-83
2022/10/24 08:17:20;;;;;;;2.67;1.52;;;15.30;99.90;;;;;;6130867;19;19918;-82
2022/10/24 08:19:24;;;;;;;4.10;0.90;;;15.20;99.90;;;;;;6127813;19;19918;-82
2022/10/24 08:21:30;;;;;;;5.63;1.00;;;15.50;99.90;;;;;;6126832;19;19911;-81
2022/10/24 08:23:37;;;;;;;4.22;0.70;;;15.40;99.90;;;;;;6128033;19;19922;-82
2022/10/24 08:25:42;;;;;;;3.95;0.90;;;15.80;99.90;;;;;;6128968;19;19918;-81
2022/10/24 08:27:46;;;;;;;4.38;0.85;;;15.70;99.90;;;;;;6129307;19;19922;-81
2022/10/24 08:29:50;;;;;;;4.38;0.80;;;15.90;99.90;;;;;;6127678;19;19970;-82
2022/10/24 08:31:56;;;;;;;5.53;0.90;;;15.90;99.90;;;;;;6126551;19;19918;-82
2022/10/24 08:33:59;;;;;;;1.73;0.73;;;15.30;99.90;;;;;;6127887;19;20280;-82
2022/10/24 08:36:06;;;;;;;3.25;0.80;;;15.30;99.90;;;;;;6129286;19;19982;-81
2022/10/24 08:38:11;;;;;;;6.10;0.70;;;15.40;99.90;;;;;;6129074;19;19931;-82
2022/10/24 08:40:21;;;;;;;4.28;0.75;;;15.10;99.90;;;;;;6133617;19;19986;-82
2022/10/24 08:42:26;;;;;;;5.45;0.90;;;14.90;99.90;;;;;;6137900;19;19923;-82
2022/10/24 08:44:33;;;;;;;4.60;0.82;;;15.40;99.90;;;;;;6134446;19;19914;-82
2022/10/24 08:46:47;;;;;;;4.47;1.25;;;15.20;99.90;;;;;;6134950;19;19921;-82
2022/10/24 08:48:58;;;;;;;5.35;1.00;;;15.80;99.90;;;;;;6134704;19;19919;-83
2022/10/24 08:51:08;;;;;;;4.22;0.93;;;15.50;99.90;;;;;;6137995;19;19930;-81
2022/10/24 08:53:17;;;;;;;3.08;1.10;;;15.30;99.90;;;;;;6134686;19;19926;-83
2022/10/24 08:55:27;;;;;;;4.72;0.80;;;15.30;99.90;;;;;;6127144;19;20024;-82
2022/10/24 08:57:34;;;;;;;5.20;1.00;;;15.40;99.90;;;;;;6125638;19;20282;-82
2022/10/24 08:59:39;;;;;;;5.80;1.17;;;15.80;99.90;;;;;;6125999;19;19942;-82
2022/10/24 09:01:48;;;;;;;2.08;0.73;;;15.80;99.90;;;;;;6125662;19;19915;-82
2022/10/24 09:03:54;;;;;;;3.10;1.15;;;16.10;99.90;;;;;;6129372;19;19930;-81
2022/10/24 09:06:02;;;;;;;2.78;0.80;;;15.60;99.90;;;;;;6125800;19;20336;-81
2022/10/24 09:08:16;;;;;;;3.08;0.82;;;15.00;99.90;;;;;;6127481;19;19971;-80
2022/10/24 09:10:33;;;;;;;3.05;0.93;;;15.80;99.90;;;;;;6125808;19;19941;-82
2022/10/24 09:12:38;;;;;;;4.35;0.90;;;15.50;99.90;;;;;;6125832;19;19927;-82
2022/10/24 09:14:44;;;;;;;2.97;0.50;;;15.40;99.90;;;;;;6125784;19;19915;-81
2022/10/24 09:16:52;;;;;;;7.93;0.90;;;16.50;99.90;;;;;;6124722;19;19933;-81
2022/10/24 09:18:58;;;;;;;;;;;15.90;99.90;;;;;;6126466;19;19918;-81
2022/10/24 09:21:03;;;;;;;3.67;0.93;;;15.80;99.90;;;;;;6128781;19;19922;-81
2022/10/24 09:23:08;;;;;;;1.88;1.00;;;16.80;99.90;;;;;;6133723;19;19946;-81
2022/10/24 09:25:16;;;;;;;3.75;0.57;;;15.90;99.90;;;;;;6130380;19;19986;-82
2022/10/24 09:27:28;;;;;;;5.10;0.73;;;15.30;99.90;;;;;;6130724;19;19926;-84
2022/10/24 09:29:34;;;;;;;4.88;0.88;;;15.90;99.90;;;;;;6128883;19;19927;-81
2022/10/24 09:31:37;;;;;;;4.68;0.90;;;15.40;99.90;;;;;;6130066;19;19953;-82
2022/10/24 09:33:42;;;;;;;6.70;0.80;;;15.50;99.90;;;;;;6130724;19;19962;-82
2022/10/24 09:35:47;;;;;;;11.00;1.15;;;15.70;99.90;;;;;;6128578;19;19923;-82
2022/10/24 09:37:54;;;;;;;8.05;0.93;;;16.20;99.90;;;;;;6130553;19;19922;-82
2022/10/24 09:40:08;;;;;;;6.53;1.17;;;16.20;99.90;;;;;;6130408;19;19917;-82
2022/10/24 09:42:22;;;;;;;4.82;1.08;;;16.10;99.90;;;;;;6130043;19;20251;-82
2022/10/24 09:44:36;;;;;;;2.47;0.68;;;16.30;99.90;;;;;;6130076;19;19918;-82
2022/10/24 09:46:44;;;;;;;4.57;0.93;;;15.60;99.90;;;;;;6130157;19;19914;-82
2022/10/24 09:48:53;;;;;;;4.47;0.70;;;15.90;99.90;;;;;;6129265;19;20340;-82
2022/10/24 09:50:57;;;;;;;7.05;1.30;;;16.20;99.90;;;;;;6129882;19;19910;-82
2022/10/24 09:53:03;;;;;;;1.75;0.57;;;15.90;99.90;;;;;;6131951;19;19941;-81
2022/10/24 09:55:18;;;;;;;3.38;1.10;;;15.90;99.90;;;;;;6130145;19;20535;-82
2022/10/24 09:57:22;;;;;;;3.33;1.00;;;16.10;99.90;;;;;;6130018;19;19910;-82
2022/10/24 09:59:40;;;;;;;4.25;0.75;;;15.20;99.90;;;;;;6131042;19;20229;-82
2022/10/24 10:01:44;;;;;;;2.95;0.75;;;15.80;99.90;;;;;;6129987;19;20270;-81
2022/10/24 10:04:02;;;;;;;4.40;0.73;;;15.90;99.90;;;;;;6131828;19;19937;-82
2022/10/24 10:06:17;;;;;;;5.93;0.82;;;15.40;99.90;;;;;;6129519;19;19919;-82
2022/10/24 10:08:24;;;;;;;3.05;0.85;;;16.10;99.90;;;;;;6130541;19;19927;-83
2022/10/24 10:10:34;;;;;;;2.70;0.63;;;15.90;99.90;;;;;;6119710;19;19963;-82
2022/10/24 10:12:40;;;;;;;4.07;0.95;;;16.50;99.90;;;;;;6134066;19;19950;-80
2022/10/24 10:14:46;;;;;;;6.43;1.25;;;15.90;99.90;;;;;;6134640;19;19959;-83
2022/10/24 10:17:00;;;;;;;3.40;0.70;;;17.20;99.90;;;;;;6137008;19;19910;-81
2022/10/24 10:19:08;;;;;;;5.47;1.08;;;16.20;99.90;;;;;;6132946;19;19914;-81
2022/10/24 10:21:15;;;;;;;6.53;0.95;;;16.30;99.90;;;;;;6134104;19;19914;-82
2022/10/24 10:23:28;;;;;;;6.13;1.70;;;16.70;99.90;;;;;;6134081;19;20027;-81
2022/10/24 10:25:33;;;;;;;5.30;1.65;;;16.00;99.90;;;;;;6128871;19;20264;-79
2022/10/24 10:27:40;;;;;;;4.10;1.17;;;16.70;99.90;;;;;;6130419;19;19915;-79
2022/10/24 10:29:47;;;;;;;3.95;0.63;;;16.50;99.90;;;;;;6130681;19;19915;-80
2022/10/24 10:31:55;;;;;;;4.57;0.82;;;16.30;99.90;;;;;;6127307;19;20263;-77
2022/10/24 10:34:18;;;;;;;2.13;0.65;;;16.70;99.90;;;;;;6128436;19;19974;-77
2022/10/24 10:36:26;;;;;;;3.22;0.85;;;16.70;99.90;;;;;;6130227;19;19911;-88
2022/10/24 10:38:48;;;;;;;4.25;0.63;;;16.70;99.90;;;;;;6133191;19;19938;-87
2022/10/24 10:40:57;;;;;;;6.07;1.00;;;17.00;99.90;;;;;;6134497;19;19919;-87
2022/10/24 10:43:23;;;;;;;7.68;1.05;;;17.40;99.90;;;;;;6133130;19;19907;-86
2022/10/24 10:45:37;;;;;;;3.38;0.60;;;17.20;99.90;;;;;;6131363;19;19915;-89
2022/10/24 10:47:51;;;;;;;5.32;0.75;;;16.40;99.90;;;;;;6132411;19;20311;-86
2022/10/24 10:49:59;;;;;;;5.72;1.00;;;16.70;99.90;;;;;;6131213;19;19918;-81
2022/10/24 10:52:08;;;;;;;2.25;0.50;;;16.40;99.90;;;;;;6131318;19;20344;-82
2022/10/24 10:54:32;;;;;;;3.97;0.73;;;16.50;99.90;;;;;;6129348;19;19957;-82
2022/10/24 10:56:44;;;;;;;2.58;0.50;;;16.80;99.90;;;;;;6129192;19;19942;-83
2022/10/24 10:58:56;;;;;;;4.57;0.68;;;16.30;99.90;;;;;;6129528;19;19927;-82